Latest Coastal Weather Observations for Kowanyama

IDQ60701

Issued at 11:12 am EST Thursday 24 August 2017 (issued every 10 minutes, with the page automatically refreshed every 10 minutes)

About coastal observations | Map of coastal stations | Coastal observations for QLD | Marine services | Other Formats
Station Details ID: 029038 Name: KOWANYAMA AIRPORT Lat: -15.48 Lon: 141.75 Height: 9.6 m
Data from the previous 72 hours. | See also: Recent months at Kowanyama
Date/Time
EST
Temp
°C
Wind Pressure Rain since
9am
mm
Weather Cloud Vis
km
Sea
Height
m
Swell
Dir  Spd
kts
Gust
kts
hPa Trend Height
m
Period
s
Dir
24/11:00am 29.0 ENE 5 8 1016.0 - 0.0 - - - - - - -
24/10:30am 27.9 ENE 5 6 1016.5 - 0.0 - - - - - - -
24/10:00am 27.0 NE 7 11 1016.9 - 0.0 - - - - - - -
24/09:30am 25.8 ENE 8 13 1017.0 - 0.0 - - - - - - -
24/09:00am 24.9 ENE 7 12 1017.0 - 0.0 - - - - - - -
24/08:30am 23.9 ENE 5 9 1016.9 - 0.0 - - - - - - -
24/08:00am 21.8 ENE 3 5 1016.9 - 0.0 - - - - - - -
24/07:30am 18.5 CALM 0 0 1016.6 - 0.0 - - - - - - -
24/07:00am 17.2 CALM 0 0 1016.4 - 0.0 - - - - - - -
24/06:30am 17.5 CALM 0 0 1016.1 - 0.0 - - - - - - -
24/06:00am 18.0 CALM 0 0 1015.9 - 0.0 - - - - - - -
24/05:30am 19.3 ESE 3 4 1015.9 - 0.0 - - - - - - -
24/05:00am 19.1 NE 3 4 1015.6 - 0.0 - - - - - - -
24/04:30am 20.1 ENE 3 4 1015.7 - 0.0 - - - - - - -
24/04:00am 20.5 NE 3 5 1015.5 - 0.0 - - - - - - -
24/03:30am 20.6 NE 3 5 1015.5 - 0.0 - - - - - - -
24/03:00am 20.3 NE 3 4 1015.5 - 0.0 - - - - - - -
24/02:30am 20.7 NNE 4 5 1015.6 - 0.0 - - - - - - -
24/02:00am 20.8 CALM 0 0 1015.9 - 0.0 - - - - - - -
24/01:30am 20.7 CALM 0 0 1015.9 - 0.0 - - - - - - -
24/01:00am 21.5 NE 3 4 1016.0 - 0.0 - - - - - - -
24/12:30am 21.6 NE 4 5 1016.2 - 0.0 - - - - - - -
24/12:00am 21.9 NE 3 4 1016.2 - 0.0 - - - - - - -
 
Date/Time
EST
Temp
°C
Wind Pressure Rain since
9am
mm
Weather Cloud Vis
km
Sea
Height
m
Swell
Dir  Spd
kts
Gust
kts
hPa Trend Height
m
Period
s
Dir
23/11:30pm 22.4 NE 5 7 1016.2 - 0.0 - - - - - - -
23/11:00pm 22.4 N 5 9 1016.0 - 0.0 - - - - - - -
23/10:30pm 22.3 SSW 3 5 1015.2 - 0.0 - - - - - - -
23/10:00pm 22.8 SW 4 6 1015.1 - 0.0 - - - - - - -
23/09:30pm 23.1 SSW 6 7 1015.1 - 0.0 - - - - - - -
23/09:00pm 23.3 SW 6 7 1015.0 - 0.0 - - - - - - -
23/08:30pm 23.7 SW 6 8 1014.8 - 0.0 - - - - - - -
23/08:00pm 24.1 SW 7 11 1014.3 - 0.0 - - - - - - -
23/07:30pm 24.7 SW 7 12 1013.7 - 0.0 - - - - - - -
23/07:00pm 25.5 SW 8 12 1013.4 - 0.0 - - - - - - -
23/06:30pm 26.4 WSW 8 11 1012.9 - 0.0 - - - - - - -
23/06:00pm 27.7 WSW 9 13 1012.7 - 0.0 - - - - - - -
23/05:30pm 29.3 WSW 10 13 1012.5 - 0.0 - - - - - - -
23/05:00pm 31.2 SW 9 14 1012.3 - 0.0 - - - - - - -
23/04:30pm 33.5 ESE 6 11 1012.0 - 0.0 - - - - - - -
23/04:00pm 34.0 SE 8 13 1012.1 - 0.0 - - - - - - -
23/03:30pm 33.7 SSE 5 11 1012.2 - 0.0 - - - - - - -
23/03:00pm 33.2 SSE 8 12 1012.5 - 0.0 - - - - - - -
23/02:30pm 33.7 SE 8 14 1013.0 - 0.0 - - - - - - -
23/02:00pm 33.2 ESE 9 15 1013.6 - 0.0 - - - - - - -
23/01:30pm 32.4 SE 9 16 1014.2 - 0.0 - - - - - - -
23/01:00pm 32.2 SE 7 15 1014.8 - 0.0 - - - - - - -
23/12:30pm 31.2 SE 8 13 1015.2 - 0.0 - - - - - - -
23/12:00pm 30.4 E 6 12 1015.8 - 0.0 - - - - - - -
23/11:30am 29.2 E 7 11 1016.4 - 0.0 - - - - - - -
23/11:00am 28.7 ENE 8 11 1017.0 - 0.0 - - - - - - -
23/10:30am 27.7 ENE 8 13 1017.5 - 0.0 - - - - - - -
23/10:00am 26.6 ENE 8 11 1017.7 - 0.0 - - - - - - -
23/09:30am 25.4 ENE 9 13 1017.9 - 0.0 - - - - - - -
23/09:00am 24.6 ENE 7 11 1017.7 - 0.0 - - - - - - -
23/08:30am 23.3 NE 7 11 1017.6 - 0.0 - - - - - - -
23/08:00am 21.2 ESE 2 4 1017.5 - 0.0 - - - - - - -
23/07:30am 18.0 CALM 0 0 1017.3 - 0.0 - - - - - - -
23/07:00am 16.9 CALM 0 3 1017.0 - 0.0 - - - - - - -
23/06:30am 17.3 CALM 0 0 1016.8 - 0.0 - - - - - - -
23/06:00am 18.0 ENE 3 5 1016.5 - 0.0 - - - - - - -
23/05:30am 18.0 CALM 0 0 1016.3 - 0.0 - - - - - - -
23/05:00am 18.4 CALM 0 0 1016.1 - 0.0 - - - - - - -
23/04:30am 19.5 NNE 1 3 1016.0 - 0.0 - - - - - - -
23/04:00am 20.0 NE 3 4 1016.0 - 0.0 - - - - - - -
23/03:30am 20.7 NE 4 5 1016.1 - 0.0 - - - - - - -
23/03:00am 21.1 NNE 5 7 1016.1 - 0.0 - - - - - - -
23/02:30am 21.4 NE 4 7 1016.2 - 0.0 - - - - - - -
23/02:00am 21.4 NE 5 8 1016.4 - 0.0 - - - - - - -
23/01:30am 21.0 NE 4 5 1016.5 - 0.0 - - - - - - -
23/01:00am 21.2 NE 3 5 1016.6 - 0.0 - - - - - - -
23/12:30am 21.1 NE 3 5 1016.9 - 0.0 - - - - - - -
23/12:00am 21.3 NE 3 4 1016.8 - 0.0 - - - - - - -
 
Date/Time
EST
Temp
°C
Wind Pressure Rain since
9am
mm
Weather Cloud Vis
km
Sea
Height
m
Swell
Dir  Spd
kts
Gust
kts
hPa Trend Height
m
Period
s
Dir
22/11:30pm 22.2 E 6 10 1016.5 - 0.0 - - - - - - -
22/11:00pm 21.6 SSW 5 6 1015.4 - 0.0 - - - - - - -
22/10:30pm 21.9 S 5 7 1015.3 - 0.0 - - - - - - -
22/10:00pm 22.3 SSW 5 6 1015.2 - 0.0 - - - - - - -
22/09:30pm 22.7 SSW 5 8 1015.1 - 0.0 - - - - - - -
22/09:00pm 23.2 SSW 6 9 1015.0 - 0.0 - - - - - - -
22/08:30pm 23.6 SSW 6 8 1014.8 - 0.0 - - - - - - -
22/08:00pm 24.2 SW 6 9 1014.3 - 0.0 - - - - - - -
22/07:30pm 25.2 SW 8 11 1013.9 - 0.0 - - - - - - -
22/07:00pm 26.1 SW 7 10 1013.5 - 0.0 - - - - - - -
22/06:30pm 27.0 WSW 7 10 1013.1 - 0.0 - - - - - - -
22/06:00pm 28.6 WSW 8 12 1012.8 - 0.0 - - - - - - -
22/05:30pm 32.6 SE 9 12 1012.4 - 0.0 - - - - - - -
22/05:00pm 33.0 SSE 8 15 1012.2 - 0.0 - - - - - - -
22/04:30pm 33.3 SSE 10 14 1012.3 - 0.0 - - - - - - -
22/04:00pm 33.7 SSE 8 14 1012.3 - 0.0 - - - - - - -
22/03:30pm 33.9 SSE 9 13 1012.5 - 0.0 - - - - - - -
22/03:00pm 33.5 SSE 11 16 1012.6 - 0.0 - - - - - - -
22/02:30pm 33.7 SE 11 16 1012.9 - 0.0 - - - - - - -
22/02:00pm 33.2 SSE 9 15 1013.4 - 0.0 - - - - - - -
22/01:30pm 31.9 SE 9 13 1014.1 - 0.0 - - - - - - -
22/01:00pm 31.2 SE 8 15 1014.5 - 0.0 - - - - - - -
22/12:30pm 29.6 ESE 8 12 1015.2 - 0.0 - - - - - - -
22/12:00pm 29.4 SE 7 12 1015.6 - 0.0 - - - - - - -
22/11:30am 28.2 ESE 8 13 1016.1 - 0.0 - - - - - - -
22/11:00am 28.2 E 7 11 1016.6 - 0.0 - - - - - - -
22/10:30am 27.1 NE 8 12 1017.1 - 0.0 - - - - - - -
22/10:00am 25.5 ENE 8 11 1017.4 - 0.0 - - - - - - -
22/09:30am 24.8 NE 9 13 1017.5 - 0.0 - - - - - - -
22/09:00am 23.3 ENE 8 16 1017.3 - 0.0 - - - - - - -
22/08:30am 22.0 ENE 6 11 1017.2 - 0.0 - - - - - - -
22/08:00am 20.3 E 3 5 1017.2 - 0.0 - - - - - - -
22/07:30am 18.1 CALM 0 0 1017.1 - 0.0 - - - - - - -
22/07:00am 15.9 ESE 3 4 1016.8 - 0.0 - - - - - - -
22/06:30am 16.3 CALM 0 0 1016.4 - 0.0 - - - - - - -
22/06:00am 16.6 CALM 0 0 1016.0 - 0.0 - - - - - - -
22/05:30am 17.3 ENE 2 3 1015.6 - 0.0 - - - - - - -
22/05:00am 18.3 ENE 3 4 1015.6 - 0.0 - - - - - - -
22/04:30am 18.8 ENE 3 4 1015.5 - 0.0 - - - - - - -
22/04:00am 19.5 NE 3 4 1015.6 - 0.0 - - - - - - -
22/03:30am 20.4 NE 5 7 1015.7 - 0.0 - - - - - - -
22/03:00am 20.7 ENE 4 6 1015.8 - 0.0 - - - - - - -
22/02:30am 21.2 NE 5 6 1015.9 - 0.0 - - - - - - -
22/02:00am 21.6 NE 5 7 1015.9 - 0.0 - - - - - - -
22/01:30am 21.8 NE 5 7 1015.9 - 0.0 - - - - - - -
22/01:00am 21.7 NE 4 5 1016.0 - 0.0 - - - - - - -
22/12:30am 21.9 NE 4 7 1016.1 - 0.0 - - - - - - -
22/12:00am 21.9 E 4 5 1016.1 - 0.0 - - - - - - -
 
Date/Time
EST
Temp
°C
Wind Pressure Rain since
9am
mm
Weather Cloud Vis
km
Sea
Height
m
Swell
Dir  Spd
kts
Gust
kts
hPa Trend Height
m
Period
s
Dir
21/11:30pm 22.1 ENE 7 14 1016.2 - 0.0 - - - - - - -
21/11:00pm 21.3 S 4 4 1015.3 - 0.0 - - - - - - -
21/10:30pm 21.5 SSW 3 4 1015.3 - 0.0 - - - - - - -
21/10:00pm 22.0 SSW 4 5 1015.2 - 0.0 - - - - - - -
21/09:30pm 22.3 SSW 3 4 1015.2 - 0.0 - - - - - - -
21/09:00pm 22.6 SSW 4 6 1015.0 - 0.0 - - - - - - -
21/08:30pm 22.9 W 1 3 1014.9 - 0.0 - - - - - - -
21/08:00pm 23.9 WSW 4 5 1014.1 - 0.0 - - - - - - -
21/07:30pm 24.7 SW 4 6 1013.5 - 0.0 - - - - - - -
21/07:00pm 25.6 WSW 6 8 1013.1 - 0.0 - - - - - - -
21/06:30pm 26.6 W 8 11 1012.7 - 0.0 - - - - - - -
21/06:00pm 28.6 SW 6 9 1012.2 - 0.0 - - - - - - -
21/05:30pm 31.7 SE 4 7 1011.8 - 0.0 - - - - - - -
21/05:00pm 32.0 SE 6 12 1011.7 - 0.0 - - - - - - -
21/04:30pm 32.1 SE 9 13 1011.6 - 0.0 - - - - - - -
21/04:00pm 32.1 E 7 13 1011.4 - 0.0 - - - - - - -
21/03:30pm 32.3 ESE 6 10 1011.4 - 0.0 - - - - - - -
21/03:00pm 32.0 ENE 7 12 1011.6 - 0.0 - - - - - - -
21/02:30pm 31.2 SE 8 13 1012.1 - 0.0 - - - - - - -
21/02:00pm 31.1 SE 8 15 1012.4 - 0.0 - - - - - - -
21/01:30pm 30.9 ESE 6 10 1012.8 - 0.0 - - - - - - -
21/01:00pm 30.5 ESE 7 12 1013.3 - 0.0 - - - - - - -
21/12:30pm 29.4 E 8 14 1013.9 - 0.0 - - - - - - -
21/12:00pm 28.9 ENE 7 11 1014.5 - 0.0 - - - - - - -
21/11:30am 28.0 E 8 13 1015.3 - 0.0 - - - - - - -

Other Formats:

Comma delimited format used in spreadsheet applications
http://www.bom.gov.au/fwo/IDQ60701/IDQ60701.94268.axf

JavaScript Object Notation format (JSON) in row-major order
http://www.bom.gov.au/fwo/IDQ60701/IDQ60701.94268.json